Terminal Aerodrome Forecast
Issued by NWS

Home | Current Version | Previous Version | Text Only | Print | Product List | Glossary On
Versions: 1 2 3 4 5 6 7 8 9 10 11 12 13 14 15 16 17
000
FTUS41 KBTV 251736
TAFMSS
TAF
KMSS 251736Z 2518/2618 29009KT P6SM FEW025
     FM252200 27006KT P6SM SKC
     FM260200 VRB03KT P6SM SKC
     FM261200 05006KT P6SM BKN200=

USA.gov is the U.S. government's official web portal to all federal, state and local government web resources and services.